Impacts TAF Board
For situational awareness. Not to be used for flight planning purposes.
IDs:

KMSY - New Orleans/Armstron, LA, US

Issued at 1946 UTC 23 Jan 2020
Updated at 2003 UTC 23 Jan 2020
Potential Impact None Slight Moderate High
Time<<24/09Z 24/10Z 24/11Z 24/12Z 24/13Z 24/14Z 24/15Z 24/16Z 24/17Z 24/18Z 24/19Z 24/20Z 24/21Z>>
Type PRVL PRVL PRVL PRVL PRVL PRVL PRVL PRVL PRVL PRVL PRVL PRVL PRVL
VIS >6 >6 >6 >6 >6 >6 >6 >6 >6 >6 >6 >6 >6
CIG 15 15 15 15 -- -- -- -- -- -- -- -- --
Cover BKN BKN BKN BKN SCT SCT SCT SCT SCT SCT SCT SCT SCT
FltCat MVFR MVFR MVFR MVFR VFR VFR VFR VFR VFR VFR VFR VFR VFR
WX -- -- -- -- -- -- -- -- -- -- -- -- --
WDir 320 320 320 320 320 320 320 320 320 320 320 320 320
WSpd 7 7 7 7 7 7 7 7 7 7 7 7 7
WGst -- -- -- -- -- -- -- -- -- -- -- -- --
R01/19
XWnd 6 6 6 6 6 6 6 6 6 6 6 6 6
HWnd 4 4 4 4 4 4 4 4 4 4 4 4 4
R10/28
XWnd 4 4 4 4 4 4 4 4 4 4 4 4 4
HWnd -6 -6 -6 -6 -6 -6 -6 -6 -6 -6 -6 -6 -6
Raw TAF
KMSY 231946Z 2320/2424 15012KT P6SM VCSH BKN007 OVC015
  FM232200 19006KT P6SM VCSH BKN015
  FM240200 26005KT P6SM BKN025
  FM240700 32007KT P6SM BKN015
  FM241300 32007KT P6SM SCT010


METAR Board
Radar Display
Forecast Discussion
For situational awareness. Not to be used for flight planning purposes.